sensor_id;sensor_type;location;lat;lon;timestamp;pressure;altitude;pressure_sealevel;temperature;humidity
56514;BME280;62152;52.078;8.414;2023-02-04T00:05:27;101414.34;;;16.23;55.89
56514;BME280;62152;52.078;8.414;2023-02-04T00:09:29;101420.59;;;16.23;56.03
56514;BME280;62152;52.078;8.414;2023-02-04T00:13:30;101418.19;;;16.22;55.88
56514;BME280;62152;52.078;8.414;2023-02-04T00:17:31;101429.94;;;16.22;55.98
56514;BME280;62152;52.078;8.414;2023-02-04T00:21:32;101428.03;;;16.23;55.68
56514;BME280;62152;52.078;8.414;2023-02-04T00:25:34;101438.97;;;16.23;56.04
56514;BME280;62152;52.078;8.414;2023-02-04T00:29:35;101443.63;;;16.22;55.80
56514;BME280;62152;52.078;8.414;2023-02-04T00:33:36;101451.84;;;16.22;55.92
56514;BME280;62152;52.078;8.414;2023-02-04T00:37:37;101454.59;;;16.22;55.78
56514;BME280;62152;52.078;8.414;2023-02-04T00:41:39;101458.13;;;16.23;55.56
56514;BME280;62152;52.078;8.414;2023-02-04T00:45:41;101453.78;;;16.22;55.71
56514;BME280;62152;52.078;8.414;2023-02-04T00:49:42;101460.41;;;16.21;55.71
56514;BME280;62152;52.078;8.414;2023-02-04T00:53:43;101469.09;;;16.23;56.03
56514;BME280;62152;52.078;8.414;2023-02-04T00:57:45;101479.22;;;16.22;55.94
56514;BME280;62152;52.078;8.414;2023-02-04T01:01:46;101496.44;;;16.23;55.92
56514;BME280;62152;52.078;8.414;2023-02-04T01:05:48;101501.13;;;16.22;55.54
56514;BME280;62152;52.078;8.414;2023-02-04T01:09:49;101510.13;;;16.23;55.60
56514;BME280;62152;52.078;8.414;2023-02-04T01:13:51;101512.88;;;16.23;55.87
56514;BME280;62152;52.078;8.414;2023-02-04T01:17:52;101515.63;;;16.23;55.80
56514;BME280;62152;52.078;8.414;2023-02-04T01:21:53;101511.28;;;16.22;56.28
56514;BME280;62152;52.078;8.414;2023-02-04T01:25:54;101525.75;;;16.22;55.72
56514;BME280;62152;52.078;8.414;2023-02-04T01:29:56;101534.78;;;16.23;55.70
56514;BME280;62152;52.078;8.414;2023-02-04T01:33:57;101533.16;;;16.22;55.65
56514;BME280;62152;52.078;8.414;2023-02-04T01:37:58;101539.44;;;16.22;55.63
56514;BME280;62152;52.078;8.414;2023-02-04T01:41:59;101548.47;;;16.23;56.18
56514;BME280;62152;52.078;8.414;2023-02-04T01:46:02;101547.19;;;16.20;55.88
56514;BME280;62152;52.078;8.414;2023-02-04T01:50:03;101550.41;;;16.22;55.87
56514;BME280;62152;52.078;8.414;2023-02-04T01:54:09;101561.34;;;16.22;55.74
56514;BME280;62152;52.078;8.414;2023-02-04T01:58:11;101567.63;;;16.23;55.68
56514;BME280;62152;52.078;8.414;2023-02-04T02:02:38;101569.56;;;16.22;55.78
56514;BME280;62152;52.078;8.414;2023-02-04T02:06:44;101574.22;;;16.22;55.75
56514;BME280;62152;52.078;8.414;2023-02-04T02:10:49;101573.09;;;16.23;55.84
56514;BME280;62152;52.078;8.414;2023-02-04T02:14:50;101584.06;;;16.23;55.92
56514;BME280;62152;52.078;8.414;2023-02-04T02:18:52;101593.88;;;16.24;55.79
56514;BME280;62152;52.078;8.414;2023-02-04T02:23:01;101596.63;;;16.24;55.85
56514;BME280;62152;52.078;8.414;2023-02-04T02:27:10;101605.97;;;16.23;55.74
56514;BME280;62152;52.078;8.414;2023-02-04T02:31:12;101610.63;;;16.22;56.02
56514;BME280;62152;52.078;8.414;2023-02-04T02:35:14;101623.19;;;16.23;56.05
56514;BME280;62152;52.078;8.414;2023-02-04T02:39:16;101632.19;;;16.24;55.74
56514;BME280;62152;52.078;8.414;2023-02-04T02:43:23;101632.53;;;16.22;55.58
56514;BME280;62152;52.078;8.414;2023-02-04T02:47:26;101633.34;;;16.23;55.71
56514;BME280;62152;52.078;8.414;2023-02-04T02:51:27;101634.94;;;16.24;55.85
56514;BME280;62152;52.078;8.414;2023-02-04T02:55:29;101631.72;;;16.22;55.68
56514;BME280;62152;52.078;8.414;2023-02-04T02:59:33;101625.44;;;16.21;55.76
56514;BME280;62152;52.078;8.414;2023-02-04T03:03:37;101638.81;;;16.23;55.76
56514;BME280;62152;52.078;8.414;2023-02-04T03:07:41;101628.19;;;16.21;55.55
56514;BME280;62152;52.078;8.414;2023-02-04T03:11:42;101636.88;;;16.23;55.94
56514;BME280;62152;52.078;8.414;2023-02-04T03:15:47;101638.81;;;16.23;55.66
56514;BME280;62152;52.078;8.414;2023-02-04T03:19:49;101654.09;;;16.24;55.77
56514;BME280;62152;52.078;8.414;2023-02-04T03:23:50;101656.84;;;16.24;55.60
56514;BME280;62152;52.078;8.414;2023-02-04T03:27:53;101667.78;;;16.24;55.81
56514;BME280;62152;52.078;8.414;2023-02-04T03:31:56;101673.28;;;16.24;55.25
56514;BME280;62152;52.078;8.414;2023-02-04T03:35:57;101674.41;;;16.23;55.88
56514;BME280;62152;52.078;8.414;2023-02-04T03:39:58;101683.41;;;16.23;55.77
56514;BME280;62152;52.078;8.414;2023-02-04T03:43:59;101688.88;;;16.23;55.51
56514;BME280;62152;52.078;8.414;2023-02-04T03:48:01;101688.56;;;16.25;55.94
56514;BME280;62152;52.078;8.414;2023-02-04T03:52:03;101707.72;;;16.25;55.65
56514;BME280;62152;52.078;8.414;2023-02-04T03:56:04;101707.72;;;16.25;56.03
56514;BME280;62152;52.078;8.414;2023-02-04T04:00:07;101712.41;;;16.24;55.85
56514;BME280;62152;52.078;8.414;2023-02-04T04:04:14;101722.53;;;16.24;55.77
56514;BME280;62152;52.078;8.414;2023-02-04T04:08:14;101726.91;;;16.25;55.48
56514;BME280;62152;52.078;8.414;2023-02-04T04:12:15;101729.97;;;16.23;55.63
56514;BME280;62152;52.078;8.414;2023-02-04T04:16:16;101731.88;;;16.23;55.87
56514;BME280;62152;52.078;8.414;2023-02-04T04:20:18;101738.97;;;16.24;55.62
56514;BME280;62152;52.078;8.414;2023-02-04T04:24:19;101750.72;;;16.24;56.02
56514;BME280;62152;52.078;8.414;2023-02-04T04:28:20;101754.28;;;16.25;55.67
56514;BME280;62152;52.078;8.414;2023-02-04T04:32:21;101750.72;;;16.24;55.95
56514;BME280;62152;52.078;8.414;2023-02-04T04:36:23;101747.19;;;16.24;55.89
56514;BME280;62152;52.078;8.414;2023-02-04T04:40:24;101756.19;;;16.24;55.83
56514;BME280;62152;52.078;8.414;2023-02-04T04:44:25;101772.63;;;16.24;55.84
56514;BME280;62152;52.078;8.414;2023-02-04T04:48:26;101777.31;;;16.24;55.89
56514;BME280;62152;52.078;8.414;2023-02-04T04:52:28;101788.25;;;16.24;55.98
56514;BME280;62152;52.078;8.414;2023-02-04T04:56:29;101790.66;;;16.25;55.60
56514;BME280;62152;52.078;8.414;2023-02-04T05:00:30;101801.63;;;16.25;55.88
56514;BME280;62152;52.078;8.414;2023-02-04T05:04:31;101801.63;;;16.25;55.61
56514;BME280;62152;52.078;8.414;2023-02-04T05:08:34;101797.59;;;16.23;55.65
56514;BME280;62152;52.078;8.414;2023-02-04T05:12:35;101809.34;;;16.23;55.47
56514;BME280;62152;52.078;8.414;2023-02-04T05:16:35;101816.44;;;16.24;55.57
56514;BME280;62152;52.078;8.414;2023-02-04T05:20:36;101809.34;;;16.23;55.63
56514;BME280;62152;52.078;8.414;2023-02-04T05:24:38;101825.44;;;16.25;55.68
56514;BME280;62152;52.078;8.414;2023-02-04T05:28:39;101825.44;;;16.25;55.88
56514;BME280;62152;52.078;8.414;2023-02-04T05:32:41;101833.66;;;16.25;55.62
56514;BME280;62152;52.078;8.414;2023-02-04T05:36:42;101839.16;;;16.25;55.71
56514;BME280;62152;52.078;8.414;2023-02-04T05:40:44;101854.75;;;16.24;55.91
56514;BME280;62152;52.078;8.414;2023-02-04T05:44:45;101862.16;;;16.24;55.80
56514;BME280;62152;52.078;8.414;2023-02-04T05:48:46;101870.38;;;16.24;55.63
56514;BME280;62152;52.078;8.414;2023-02-04T05:52:46;101863.28;;;16.23;55.67
56514;BME280;62152;52.078;8.414;2023-02-04T05:56:48;101871.19;;;16.24;55.73
56514;BME280;62152;52.078;8.414;2023-02-04T06:00:49;101890.34;;;16.24;55.78
56514;BME280;62152;52.078;8.414;2023-02-04T06:04:50;101898.56;;;16.24;55.64
56514;BME280;62152;52.078;8.414;2023-02-04T06:08:51;101892.28;;;16.24;55.92
56514;BME280;62152;52.078;8.414;2023-02-04T06:12:53;101889.22;;;16.25;55.96
56514;BME280;62152;52.078;8.414;2023-02-04T06:16:54;101902.13;;;16.25;55.85
56514;BME280;62152;52.078;8.414;2023-02-04T06:20:55;101901.63;;;16.23;55.59
56514;BME280;62152;52.078;8.414;2023-02-04T06:24:55;101903.25;;;16.24;55.48
56514;BME280;62152;52.078;8.414;2023-02-04T06:28:58;101914.19;;;16.24;55.42
56514;BME280;62152;52.078;8.414;2023-02-04T06:32:59;101926.75;;;16.25;55.89
56514;BME280;62152;52.078;8.414;2023-02-04T06:36:59;101923.69;;;16.26;55.94
56514;BME280;62152;52.078;8.414;2023-02-04T06:41:00;101912.75;;;16.26;55.98
56514;BME280;62152;52.078;8.414;2023-02-04T06:45:04;101919.34;;;16.25;56.18
56514;BME280;62152;52.078;8.414;2023-02-04T06:49:05;101929.81;;;16.23;56.29
56514;BME280;62152;52.078;8.414;2023-02-04T06:53:06;101926.75;;;16.25;55.92
56514;BME280;62152;52.078;8.414;2023-02-04T06:57:07;101948.66;;;16.25;56.21
56514;BME280;62152;52.078;8.414;2023-02-04T07:01:09;101955.75;;;16.26;55.87
56514;BME280;62152;52.078;8.414;2023-02-04T07:05:11;101961.22;;;16.26;56.32
56514;BME280;62152;52.078;8.414;2023-02-04T07:09:12;101967.81;;;16.25;56.22
56514;BME280;62152;52.078;8.414;2023-02-04T07:13:12;101968.63;;;16.25;55.79
56514;BME280;62152;52.078;8.414;2023-02-04T07:17:15;101969.75;;;16.24;56.22
56514;BME280;62152;52.078;8.414;2023-02-04T07:21:16;101968.94;;;16.24;55.87
56514;BME280;62152;52.078;8.414;2023-02-04T07:25:17;101978.78;;;16.25;55.87
56514;BME280;62152;52.078;8.414;2023-02-04T07:29:17;101979.91;;;16.24;56.18
56514;BME280;62152;52.078;8.414;2023-02-04T07:33:20;101984.25;;;16.25;56.43
56514;BME280;62152;52.078;8.414;2023-02-04T07:37:21;101993.28;;;16.25;55.97
56514;BME280;62152;52.078;8.414;2023-02-04T07:41:21;101996.81;;;16.26;56.00
56514;BME280;62152;52.078;8.414;2023-02-04T07:45:23;102003.63;;;16.28;55.97
56514;BME280;62152;52.078;8.414;2023-02-04T07:49:25;102009.41;;;16.27;55.99
56514;BME280;62152;52.078;8.414;2023-02-04T07:53:26;102013.13;;;16.31;55.67
56514;BME280;62152;52.078;8.414;2023-02-04T07:57:27;102018.59;;;16.31;55.70
56514;BME280;62152;52.078;8.414;2023-02-04T08:01:28;102011.72;;;16.33;55.92
56514;BME280;62152;52.078;8.414;2023-02-04T08:05:30;102017.66;;;16.13;53.78
56514;BME280;62152;52.078;8.414;2023-02-04T08:09:30;102019.16;;;16.19;55.51
56514;BME280;62152;52.078;8.414;2023-02-04T08:13:31;102022.84;;;16.37;55.83
56514;BME280;62152;52.078;8.414;2023-02-04T08:17:32;102030.63;;;16.44;55.24
56514;BME280;62152;52.078;8.414;2023-02-04T08:21:34;102040.69;;;16.71;55.60
56514;BME280;62152;52.078;8.414;2023-02-04T08:25:35;102047.72;;;16.85;56.31
56514;BME280;62152;52.078;8.414;2023-02-04T08:29:36;102050.94;;;16.87;55.94
56514;BME280;62152;52.078;8.414;2023-02-04T08:33:37;102058.38;;;16.87;56.53
56514;BME280;62152;52.078;8.414;2023-02-04T08:37:40;102065.47;;;16.88;56.51
56514;BME280;62152;52.078;8.414;2023-02-04T08:41:41;102069.84;;;16.89;56.92
56514;BME280;62152;52.078;8.414;2023-02-04T08:45:42;102077.25;;;16.88;56.52
56514;BME280;62152;52.078;8.414;2023-02-04T08:49:43;102079.59;;;16.81;57.17
56514;BME280;62152;52.078;8.414;2023-02-04T08:53:45;102080.44;;;16.82;57.25
56514;BME280;62152;52.078;8.414;2023-02-04T08:57:45;102085.09;;;16.81;57.51
56514;BME280;62152;52.078;8.414;2023-02-04T09:01:46;102086.22;;;16.80;57.73
56514;BME280;62152;52.078;8.414;2023-02-04T09:05:47;102088.34;;;16.83;57.48
56514;BME280;62152;52.078;8.414;2023-02-04T09:09:49;102081.78;;;16.93;57.10
56514;BME280;62152;52.078;8.414;2023-02-04T09:13:50;102087.78;;;16.73;57.75
56514;BME280;62152;52.078;8.414;2023-02-04T09:17:51;102092.94;;;16.60;58.04
56514;BME280;62152;52.078;8.414;2023-02-04T09:21:52;102107.59;;;16.56;57.72
56514;BME280;62152;52.078;8.414;2023-02-04T09:25:55;102104.66;;;16.52;57.45
56514;BME280;62152;52.078;8.414;2023-02-04T09:29:56;102120.59;;;16.50;57.71
56514;BME280;62152;52.078;8.414;2023-02-04T09:33:57;102117.84;;;16.50;57.54
56514;BME280;62152;52.078;8.414;2023-02-04T09:37:58;102125.25;;;16.50;57.38
56514;BME280;62152;52.078;8.414;2023-02-04T09:42:00;102121.72;;;16.49;57.34
56514;BME280;62152;52.078;8.414;2023-02-04T09:46:01;102126.38;;;16.49;57.13
56514;BME280;62152;52.078;8.414;2023-02-04T09:50:02;102133.78;;;16.48;57.32
56514;BME280;62152;52.078;8.414;2023-02-04T09:54:08;102132.69;;;16.49;57.17
56514;BME280;62152;52.078;8.414;2023-02-04T09:58:15;102117.06;;;16.50;56.94
56514;BME280;62152;52.078;8.414;2023-02-04T10:02:22;102124.47;;;16.49;57.07
56514;BME280;62152;52.078;8.414;2023-02-04T10:06:24;102134.28;;;16.50;57.16
56514;BME280;62152;52.078;8.414;2023-02-04T10:10:26;102142.50;;;16.50;56.97
56514;BME280;62152;52.078;8.414;2023-02-04T10:14:29;102153.47;;;16.50;56.75
56514;BME280;62152;52.078;8.414;2023-02-04T10:18:32;102147.19;;;16.50;56.98
56514;BME280;62152;52.078;8.414;2023-02-04T10:22:33;102150.22;;;16.48;56.84
56514;BME280;62152;52.078;8.414;2023-02-04T10:26:34;102162.50;;;16.51;56.60
56514;BME280;62152;52.078;8.414;2023-02-04T10:30:42;102165.84;;;16.48;56.49
56514;BME280;62152;52.078;8.414;2023-02-04T10:34:42;102159.25;;;16.49;56.31
56514;BME280;62152;52.078;8.414;2023-02-04T10:38:43;102159.25;;;16.49;56.52
56514;BME280;62152;52.078;8.414;2023-02-04T10:42:47;102162.00;;;16.49;56.55
56514;BME280;62152;52.078;8.414;2023-02-04T10:46:57;102165.53;;;16.49;56.67
56514;BME280;62152;52.078;8.414;2023-02-04T10:50:59;102155.72;;;16.48;56.49
56514;BME280;62152;52.078;8.414;2023-02-04T10:55:01;102164.75;;;16.49;56.38
56514;BME280;62152;52.078;8.414;2023-02-04T10:59:03;102169.41;;;16.48;56.40
56514;BME280;62152;52.078;8.414;2023-02-04T11:03:10;102163.94;;;16.48;56.65
56514;BME280;62152;52.078;8.414;2023-02-04T11:07:18;102159.56;;;16.47;56.58
56514;BME280;62152;52.078;8.414;2023-02-04T11:11:23;102151.84;;;16.49;56.31
56514;BME280;62152;52.078;8.414;2023-02-04T11:15:41;102167.47;;;16.49;56.65
56514;BME280;62152;52.078;8.414;2023-02-04T11:19:45;102172.16;;;16.48;56.22
56514;BME280;62152;52.078;8.414;2023-02-04T11:23:46;102173.75;;;16.49;56.38
56514;BME280;62152;52.078;8.414;2023-02-04T11:27:47;102175.53;;;16.81;56.03
56514;BME280;62152;52.078;8.414;2023-02-04T11:31:57;102172.63;;;17.00;56.39
56514;BME280;62152;52.078;8.414;2023-02-04T11:36:04;102171.88;;;16.86;56.83
56514;BME280;62152;52.078;8.414;2023-02-04T11:40:28;102176.16;;;17.01;56.59
56514;BME280;62152;52.078;8.414;2023-02-04T11:44:31;102177.25;;;17.13;56.50
56514;BME280;62152;52.078;8.414;2023-02-04T11:48:35;102184.34;;;17.14;57.27
56514;BME280;62152;52.078;8.414;2023-02-04T11:52:37;102175.50;;;16.95;57.88
56514;BME280;62152;52.078;8.414;2023-02-04T11:56:38;102182.22;;;16.89;58.03
56514;BME280;62152;52.078;8.414;2023-02-04T12:00:39;102179.78;;;16.87;58.31
56514;BME280;62152;52.078;8.414;2023-02-04T12:04:49;102187.69;;;16.89;58.29
56514;BME280;62152;52.078;8.414;2023-02-04T12:09:04;102178.75;;;16.97;57.81
56514;BME280;62152;52.078;8.414;2023-02-04T12:13:22;102173.75;;;16.99;57.85
56514;BME280;62152;52.078;8.414;2023-02-04T12:17:24;102179.28;;;17.08;56.74
56514;BME280;62152;52.078;8.414;2023-02-04T12:21:25;102174.97;;;17.15;56.79
56514;BME280;62152;52.078;8.414;2023-02-04T12:25:27;102173.75;;;17.21;56.57
56514;BME280;62152;52.078;8.414;2023-02-04T12:29:28;102177.81;;;17.24;56.13
56514;BME280;62152;52.078;8.414;2023-02-04T12:33:29;102186.56;;;17.35;55.21
56514;BME280;62152;52.078;8.414;2023-02-04T12:37:30;102200.28;;;17.57;55.09
56514;BME280;62152;52.078;8.414;2023-02-04T12:41:32;102195.09;;;17.56;54.57
56514;BME280;62152;52.078;8.414;2023-02-04T12:45:33;102211.19;;;17.48;54.69
56514;BME280;62152;52.078;8.414;2023-02-04T12:49:34;102207.16;;;17.46;55.11
56514;BME280;62152;52.078;8.414;2023-02-04T12:53:35;102204.09;;;17.47;55.43
56514;BME280;62152;52.078;8.414;2023-02-04T12:57:37;102198.13;;;17.45;55.61
56514;BME280;62152;52.078;8.414;2023-02-04T13:01:38;102207.75;;;17.43;55.33
56514;BME280;62152;52.078;8.414;2023-02-04T13:05:38;102197.00;;;17.46;55.02
56514;BME280;62152;52.078;8.414;2023-02-04T13:09:39;102199.94;;;17.50;54.88
56514;BME280;62152;52.078;8.414;2023-02-04T13:13:41;102201.53;;;17.51;54.93
56514;BME280;62152;52.078;8.414;2023-02-04T13:17:42;102187.03;;;17.50;55.23
56514;BME280;62152;52.078;8.414;2023-02-04T13:21:43;102194.94;;;17.52;55.60
56514;BME280;62152;52.078;8.414;2023-02-04T13:25:44;102198.66;;;17.56;55.16
56514;BME280;62152;52.078;8.414;2023-02-04T13:29:46;102194.56;;;17.45;56.17
56514;BME280;62152;52.078;8.414;2023-02-04T13:33:47;102195.06;;;17.25;56.23
56514;BME280;62152;52.078;8.414;2023-02-04T13:37:47;102187.59;;;17.16;56.62
56514;BME280;62152;52.078;8.414;2023-02-04T13:41:49;102190.78;;;17.10;56.47
56514;BME280;62152;52.078;8.414;2023-02-04T13:45:51;102199.91;;;17.05;56.98
56514;BME280;62152;52.078;8.414;2023-02-04T13:49:52;102193.94;;;17.03;56.95
56514;BME280;62152;52.078;8.414;2023-02-04T13:53:52;102200.84;;;17.01;56.87
56514;BME280;62152;52.078;8.414;2023-02-04T13:57:53;102201.16;;;16.99;56.47
56514;BME280;62152;52.078;8.414;2023-02-04T14:01:55;102196.81;;;16.98;56.75
56514;BME280;62152;52.078;8.414;2023-02-04T14:05:56;102205.34;;;16.97;56.60
56514;BME280;62152;52.078;8.414;2023-02-04T14:09:57;102205.66;;;16.95;56.76
56514;BME280;62152;52.078;8.414;2023-02-04T14:13:58;102204.31;;;16.92;56.78
56514;BME280;62152;52.078;8.414;2023-02-04T14:18:00;102201.59;;;16.92;56.68
56514;BME280;62152;52.078;8.414;2023-02-04T14:22:01;102190.94;;;16.91;56.46
56514;BME280;62152;52.078;8.414;2023-02-04T14:26:01;102205.44;;;16.91;56.50
56514;BME280;62152;52.078;8.414;2023-02-04T14:30:03;102207.38;;;16.91;56.70
56514;BME280;62152;52.078;8.414;2023-02-04T14:34:05;102213.19;;;16.89;56.30
56514;BME280;62152;52.078;8.414;2023-02-04T14:38:06;102207.97;;;16.88;56.72
56514;BME280;62152;52.078;8.414;2023-02-04T14:42:07;102207.19;;;16.87;56.55
56514;BME280;62152;52.078;8.414;2023-02-04T14:46:08;102210.22;;;16.86;56.66
56514;BME280;62152;52.078;8.414;2023-02-04T14:50:13;102199.28;;;16.86;56.44
56514;BME280;62152;52.078;8.414;2023-02-04T14:54:16;102214.09;;;16.85;56.38
56514;BME280;62152;52.078;8.414;2023-02-04T14:58:17;102217.16;;;16.83;56.38
56514;BME280;62152;52.078;8.414;2023-02-04T15:02:17;102207.31;;;16.82;56.54
56514;BME280;62152;52.078;8.414;2023-02-04T15:06:20;102210.88;;;16.83;56.41
56514;BME280;62152;52.078;8.414;2023-02-04T15:10:20;102210.34;;;16.81;56.56
56514;BME280;62152;52.078;8.414;2023-02-04T15:14:21;102218.56;;;16.81;56.24
56514;BME280;62152;52.078;8.414;2023-02-04T15:18:22;102218.88;;;16.79;56.57
56514;BME280;62152;52.078;8.414;2023-02-04T15:22:24;102216.94;;;16.80;56.47
56514;BME280;62152;52.078;8.414;2023-02-04T15:26:25;102217.75;;;16.80;56.52
56514;BME280;62152;52.078;8.414;2023-02-04T15:30:26;102227.41;;;16.78;56.38
56514;BME280;62152;52.078;8.414;2023-02-04T15:34:27;102220.22;;;16.82;56.26
56514;BME280;62152;52.078;8.414;2023-02-04T15:38:29;102228.03;;;17.11;55.29
56514;BME280;62152;52.078;8.414;2023-02-04T15:42:30;102221.91;;;17.14;55.35
56514;BME280;62152;52.078;8.414;2023-02-04T15:46:31;102231.22;;;17.27;55.53
56514;BME280;62152;52.078;8.414;2023-02-04T15:50:32;102222.66;;;17.28;55.32
56514;BME280;62152;52.078;8.414;2023-02-04T15:54:34;102226.09;;;17.34;56.15
56514;BME280;62152;52.078;8.414;2023-02-04T15:58:35;102225.50;;;17.37;55.76
56514;BME280;62152;52.078;8.414;2023-02-04T16:02:36;102230.03;;;17.41;55.89
56514;BME280;62152;52.078;8.414;2023-02-04T16:06:37;102229.53;;;17.39;56.31
56514;BME280;62152;52.078;8.414;2023-02-04T16:10:39;102232.78;;;17.41;55.85
56514;BME280;62152;52.078;8.414;2023-02-04T16:14:40;102227.81;;;17.43;56.64
56514;BME280;62152;52.078;8.414;2023-02-04T16:18:41;102235.41;;;17.46;56.75
56514;BME280;62152;52.078;8.414;2023-02-04T16:22:42;102234.59;;;17.46;56.44
56514;BME280;62152;52.078;8.414;2023-02-04T16:26:44;102238.34;;;17.50;56.66
56514;BME280;62152;52.078;8.414;2023-02-04T16:30:45;102237.66;;;17.44;57.27
56514;BME280;62152;52.078;8.414;2023-02-04T16:34:46;102239.06;;;17.42;56.63
56514;BME280;62152;52.078;8.414;2023-02-04T16:38:47;102241.53;;;17.43;56.74
56514;BME280;62152;52.078;8.414;2023-02-04T16:42:49;102236.63;;;17.40;56.44
56514;BME280;62152;52.078;8.414;2023-02-04T16:46:50;102242.44;;;17.39;56.34
56514;BME280;62152;52.078;8.414;2023-02-04T16:50:50;102245.69;;;17.41;56.11
56514;BME280;62152;52.078;8.414;2023-02-04T16:54:51;102248.91;;;17.43;56.65
56514;BME280;62152;52.078;8.414;2023-02-04T16:58:53;102256.66;;;17.41;55.96
56514;BME280;62152;52.078;8.414;2023-02-04T17:02:54;102273.59;;;17.43;56.87
56514;BME280;62152;52.078;8.414;2023-02-04T17:06:55;102269.63;;;17.49;57.01
56514;BME280;62152;52.078;8.414;2023-02-04T17:10:56;102273.81;;;17.46;56.56
56514;BME280;62152;52.078;8.414;2023-02-04T17:14:58;102267.69;;;17.49;56.76
56514;BME280;62152;52.078;8.414;2023-02-04T17:18:59;102275.41;;;17.47;56.58
56514;BME280;62152;52.078;8.414;2023-02-04T17:23:00;102280.31;;;17.50;55.84
56514;BME280;62152;52.078;8.414;2023-02-04T17:27:01;102273.84;;;17.55;55.41
56514;BME280;62152;52.078;8.414;2023-02-04T17:31:04;102267.56;;;17.55;55.99
56514;BME280;62152;52.078;8.414;2023-02-04T17:35:05;102269.69;;;17.58;55.97
56514;BME280;62152;52.078;8.414;2023-02-04T17:39:07;102274.06;;;17.59;56.07
56514;BME280;62152;52.078;8.414;2023-02-04T17:43:08;102275.19;;;17.58;55.97
56514;BME280;62152;52.078;8.414;2023-02-04T17:47:10;102269.97;;;17.56;55.81
56514;BME280;62152;52.078;8.414;2023-02-04T17:51:11;102267.44;;;17.60;55.85
56514;BME280;62152;52.078;8.414;2023-02-04T17:55:17;102270.69;;;17.62;55.92
56514;BME280;62152;52.078;8.414;2023-02-04T17:59:22;102274.22;;;17.62;56.24
56514;BME280;62152;52.078;8.414;2023-02-04T18:03:26;102261.78;;;17.79;57.86
56514;BME280;62152;52.078;8.414;2023-02-04T18:07:28;102276.50;;;17.83;58.47
56514;BME280;62152;52.078;8.414;2023-02-04T18:11:35;102265.81;;;17.81;59.21
56514;BME280;62152;52.078;8.414;2023-02-04T18:15:38;102272.78;;;17.79;59.00
56514;BME280;62152;52.078;8.414;2023-02-04T18:19:41;102269.22;;;17.78;58.94
56514;BME280;62152;52.078;8.414;2023-02-04T18:23:42;102266.16;;;17.80;59.35
56514;BME280;62152;52.078;8.414;2023-02-04T18:27:43;102269.38;;;17.82;59.61
56514;BME280;62152;52.078;8.414;2023-02-04T18:31:49;102270.84;;;17.79;59.59
56514;BME280;62152;52.078;8.414;2023-02-04T18:35:58;102276.63;;;17.77;59.56
56514;BME280;62152;52.078;8.414;2023-02-04T18:40:21;102273.25;;;17.58;59.72
56514;BME280;62152;52.078;8.414;2023-02-04T18:44:28;102278.00;;;17.44;59.91
56514;BME280;62152;52.078;8.414;2023-02-04T18:49:01;102292.13;;;17.37;59.90
56514;BME280;62152;52.078;8.414;2023-02-04T18:53:18;102290.31;;;17.33;59.77
56514;BME280;62152;52.078;8.414;2023-02-04T18:57:33;102296.44;;;17.30;59.63
56514;BME280;62152;52.078;8.414;2023-02-04T19:01:38;102297.72;;;17.32;59.75
56514;BME280;62152;52.078;8.414;2023-02-04T19:05:45;102299.78;;;17.27;59.73
56514;BME280;62152;52.078;8.414;2023-02-04T19:09:49;102306.19;;;17.22;59.58
56514;BME280;62152;52.078;8.414;2023-02-04T19:13:54;102302.63;;;17.21;59.45
56514;BME280;62152;52.078;8.414;2023-02-04T19:18:15;102320.22;;;17.20;59.00
56514;BME280;62152;52.078;8.414;2023-02-04T19:22:28;102324.06;;;17.19;58.76
56514;BME280;62152;52.078;8.414;2023-02-04T19:26:49;102312.09;;;17.15;59.34
56514;BME280;62152;52.078;8.414;2023-02-04T19:30:58;102305.78;;;17.15;59.52
56514;BME280;62152;52.078;8.414;2023-02-04T19:35:14;102303.38;;;17.13;58.86
56514;BME280;62152;52.078;8.414;2023-02-04T19:39:28;102304.81;;;17.11;58.64
56514;BME280;62152;52.078;8.414;2023-02-04T19:43:35;102307.84;;;17.09;59.09
56514;BME280;62152;52.078;8.414;2023-02-04T19:47:41;102305.13;;;17.09;58.87
56514;BME280;62152;52.078;8.414;2023-02-04T19:51:49;102302.66;;;17.08;58.84
56514;BME280;62152;52.078;8.414;2023-02-04T19:55:53;102299.91;;;17.08;58.70
56514;BME280;62152;52.078;8.414;2023-02-04T19:59:55;102303.78;;;17.07;58.76
56514;BME280;62152;52.078;8.414;2023-02-04T20:03:56;102307.66;;;17.06;58.36
56514;BME280;62152;52.078;8.414;2023-02-04T20:07:59;102310.72;;;17.04;58.69
56514;BME280;62152;52.078;8.414;2023-02-04T20:12:13;102315.38;;;17.04;58.38
56514;BME280;62152;52.078;8.414;2023-02-04T20:16:36;102311.03;;;17.03;58.65
56514;BME280;62152;52.078;8.414;2023-02-04T20:20:40;102310.22;;;17.02;58.12
56514;BME280;62152;52.078;8.414;2023-02-04T20:24:44;102314.03;;;17.01;58.65
56514;BME280;62152;52.078;8.414;2023-02-04T20:28:47;102312.44;;;17.00;58.09
56514;BME280;62152;52.078;8.414;2023-02-04T20:32:54;102300.66;;;17.00;58.13
56514;BME280;62152;52.078;8.414;2023-02-04T20:36:56;102309.19;;;16.98;58.32
56514;BME280;62152;52.078;8.414;2023-02-04T20:40:57;102291.13;;;16.97;58.40
56514;BME280;62152;52.078;8.414;2023-02-04T20:49:39;102293.06;;;16.97;58.13
56514;BME280;62152;52.078;8.414;2023-02-04T20:53:46;102282.41;;;16.95;58.42
56514;BME280;62152;52.078;8.414;2023-02-04T20:57:49;102280.47;;;16.95;57.86
56514;BME280;62152;52.078;8.414;2023-02-04T21:01:51;102274.19;;;16.95;58.19
56514;BME280;62152;52.078;8.414;2023-02-04T21:05:55;102262.69;;;16.93;58.24
56514;BME280;62152;52.078;8.414;2023-02-04T21:09:57;102262.38;;;16.94;58.20
56514;BME280;62152;52.078;8.414;2023-02-04T21:13:58;102260.75;;;16.93;57.89
56514;BME280;62152;52.078;8.414;2023-02-04T21:17:59;102253.66;;;16.92;58.01